sensor_id;sensor_type;location;lat;lon;timestamp;P1;durP1;ratioP1;P2;durP2;ratioP2
18196;SDS011;9224;52.422;13.024;2022-12-18T00:00:39;44.80;;;24.65;;
18196;SDS011;9224;52.422;13.024;2022-12-18T00:03:06;44.70;;;24.08;;
18196;SDS011;9224;52.422;13.024;2022-12-18T00:05:32;41.95;;;23.48;;
18196;SDS011;9224;52.422;13.024;2022-12-18T00:07:59;43.00;;;24.50;;
18196;SDS011;9224;52.422;13.024;2022-12-18T00:10:28;43.90;;;23.85;;
18196;SDS011;9224;52.422;13.024;2022-12-18T00:12:54;44.20;;;24.60;;
18196;SDS011;9224;52.422;13.024;2022-12-18T00:15:21;43.55;;;22.92;;
18196;SDS011;9224;52.422;13.024;2022-12-18T00:17:48;43.22;;;23.35;;
18196;SDS011;9224;52.422;13.024;2022-12-18T00:20:14;43.08;;;23.77;;
18196;SDS011;9224;52.422;13.024;2022-12-18T00:22:45;43.72;;;24.83;;
18196;SDS011;9224;52.422;13.024;2022-12-18T00:25:12;42.60;;;23.30;;
18196;SDS011;9224;52.422;13.024;2022-12-18T00:27:40;44.42;;;23.95;;
18196;SDS011;9224;52.422;13.024;2022-12-18T00:30:07;45.37;;;24.67;;
18196;SDS011;9224;52.422;13.024;2022-12-18T00:32:34;43.78;;;24.30;;
18196;SDS011;9224;52.422;13.024;2022-12-18T00:35:01;44.30;;;23.83;;
18196;SDS011;9224;52.422;13.024;2022-12-18T00:37:28;45.05;;;24.70;;
18196;SDS011;9224;52.422;13.024;2022-12-18T00:39:54;49.25;;;25.30;;
18196;SDS011;9224;52.422;13.024;2022-12-18T00:42:21;47.40;;;25.02;;
18196;SDS011;9224;52.422;13.024;2022-12-18T00:45:07;48.67;;;25.33;;
18196;SDS011;9224;52.422;13.024;2022-12-18T00:47:34;51.30;;;26.23;;
18196;SDS011;9224;52.422;13.024;2022-12-18T00:50:00;46.63;;;24.23;;
18196;SDS011;9224;52.422;13.024;2022-12-18T00:52:27;52.30;;;26.40;;
18196;SDS011;9224;52.422;13.024;2022-12-18T00:54:53;50.30;;;25.83;;
18196;SDS011;9224;52.422;13.024;2022-12-18T00:57:20;50.60;;;25.50;;
18196;SDS011;9224;52.422;13.024;2022-12-18T00:59:47;47.15;;;25.75;;
18196;SDS011;9224;52.422;13.024;2022-12-18T01:02:15;51.35;;;26.80;;
18196;SDS011;9224;52.422;13.024;2022-12-18T01:04:42;51.00;;;25.55;;
18196;SDS011;9224;52.422;13.024;2022-12-18T01:07:09;48.78;;;24.25;;
18196;SDS011;9224;52.422;13.024;2022-12-18T01:09:35;45.30;;;24.17;;
18196;SDS011;9224;52.422;13.024;2022-12-18T01:12:02;49.33;;;25.63;;
18196;SDS011;9224;52.422;13.024;2022-12-18T01:14:29;45.92;;;23.83;;
18196;SDS011;9224;52.422;13.024;2022-12-18T01:16:55;48.13;;;24.63;;
18196;SDS011;9224;52.422;13.024;2022-12-18T01:19:23;47.17;;;24.27;;
18196;SDS011;9224;52.422;13.024;2022-12-18T01:21:50;47.42;;;24.42;;
18196;SDS011;9224;52.422;13.024;2022-12-18T01:24:17;47.72;;;24.45;;
18196;SDS011;9224;52.422;13.024;2022-12-18T01:26:43;46.05;;;23.80;;
18196;SDS011;9224;52.422;13.024;2022-12-18T01:29:10;46.38;;;24.05;;
18196;SDS011;9224;52.422;13.024;2022-12-18T01:31:38;44.00;;;24.63;;
18196;SDS011;9224;52.422;13.024;2022-12-18T01:34:05;44.97;;;24.58;;
18196;SDS011;9224;52.422;13.024;2022-12-18T01:36:33;47.67;;;25.50;;
18196;SDS011;9224;52.422;13.024;2022-12-18T01:39:01;45.65;;;24.92;;
18196;SDS011;9224;52.422;13.024;2022-12-18T01:41:30;46.60;;;24.73;;
18196;SDS011;9224;52.422;13.024;2022-12-18T01:47:28;48.17;;;25.92;;
18196;SDS011;9224;52.422;13.024;2022-12-18T01:49:57;48.60;;;25.15;;
18196;SDS011;9224;52.422;13.024;2022-12-18T01:52:28;51.88;;;26.67;;
18196;SDS011;9224;52.422;13.024;2022-12-18T01:54:57;49.35;;;25.65;;
18196;SDS011;9224;52.422;13.024;2022-12-18T01:57:26;51.63;;;27.30;;
18196;SDS011;9224;52.422;13.024;2022-12-18T01:59:53;51.90;;;26.80;;
18196;SDS011;9224;52.422;13.024;2022-12-18T02:02:23;54.60;;;27.52;;
18196;SDS011;9224;52.422;13.024;2022-12-18T02:04:50;57.00;;;27.33;;
18196;SDS011;9224;52.422;13.024;2022-12-18T02:07:17;56.42;;;28.42;;
18196;SDS011;9224;52.422;13.024;2022-12-18T02:09:50;56.90;;;28.45;;
18196;SDS011;9224;52.422;13.024;2022-12-18T02:12:21;51.90;;;27.60;;
18196;SDS011;9224;52.422;13.024;2022-12-18T02:14:52;51.78;;;26.95;;
18196;SDS011;9224;52.422;13.024;2022-12-18T02:17:22;49.43;;;25.83;;
18196;SDS011;9224;52.422;13.024;2022-12-18T02:19:54;49.50;;;25.60;;
18196;SDS011;9224;52.422;13.024;2022-12-18T02:22:29;45.45;;;24.92;;
18196;SDS011;9224;52.422;13.024;2022-12-18T02:25:07;43.25;;;24.05;;
18196;SDS011;9224;52.422;13.024;2022-12-18T02:27:41;39.67;;;23.10;;
18196;SDS011;9224;52.422;13.024;2022-12-18T02:30:09;42.70;;;23.77;;
18196;SDS011;9224;52.422;13.024;2022-12-18T02:32:36;44.28;;;24.38;;
18196;SDS011;9224;52.422;13.024;2022-12-18T02:35:06;42.30;;;23.77;;
18196;SDS011;9224;52.422;13.024;2022-12-18T02:37:39;46.05;;;24.65;;
18196;SDS011;9224;52.422;13.024;2022-12-18T02:40:07;45.55;;;24.55;;
18196;SDS011;9224;52.422;13.024;2022-12-18T02:42:34;45.33;;;24.65;;
18196;SDS011;9224;52.422;13.024;2022-12-18T02:45:03;42.35;;;23.90;;
18196;SDS011;9224;52.422;13.024;2022-12-18T02:47:32;43.37;;;23.87;;
18196;SDS011;9224;52.422;13.024;2022-12-18T02:50:02;47.38;;;25.38;;
18196;SDS011;9224;52.422;13.024;2022-12-18T02:52:35;43.60;;;25.17;;
18196;SDS011;9224;52.422;13.024;2022-12-18T02:55:10;48.00;;;25.52;;
18196;SDS011;9224;52.422;13.024;2022-12-18T02:57:42;49.75;;;26.00;;
18196;SDS011;9224;52.422;13.024;2022-12-18T03:00:14;46.13;;;24.48;;
18196;SDS011;9224;52.422;13.024;2022-12-18T03:02:44;46.88;;;25.38;;
18196;SDS011;9224;52.422;13.024;2022-12-18T03:05:15;47.97;;;25.98;;
18196;SDS011;9224;52.422;13.024;2022-12-18T03:07:46;52.60;;;27.80;;
18196;SDS011;9224;52.422;13.024;2022-12-18T03:10:16;48.40;;;26.80;;
18196;SDS011;9224;52.422;13.024;2022-12-18T03:12:47;48.20;;;25.60;;
18196;SDS011;9224;52.422;13.024;2022-12-18T03:15:21;46.70;;;26.27;;
18196;SDS011;9224;52.422;13.024;2022-12-18T03:17:50;46.67;;;25.10;;
18196;SDS011;9224;52.422;13.024;2022-12-18T03:20:22;48.35;;;25.25;;
18196;SDS011;9224;52.422;13.024;2022-12-18T03:23:09;46.53;;;25.58;;
18196;SDS011;9224;52.422;13.024;2022-12-18T03:25:57;48.20;;;25.73;;
18196;SDS011;9224;52.422;13.024;2022-12-18T03:28:46;49.38;;;27.00;;
18196;SDS011;9224;52.422;13.024;2022-12-18T03:31:36;48.53;;;27.52;;
18196;SDS011;9224;52.422;13.024;2022-12-18T03:34:25;52.03;;;27.10;;
18196;SDS011;9224;52.422;13.024;2022-12-18T03:37:14;52.22;;;26.77;;
18196;SDS011;9224;52.422;13.024;2022-12-18T03:39:59;52.72;;;26.83;;
18196;SDS011;9224;52.422;13.024;2022-12-18T03:42:46;54.20;;;28.05;;
18196;SDS011;9224;52.422;13.024;2022-12-18T03:45:34;54.33;;;28.48;;
18196;SDS011;9224;52.422;13.024;2022-12-18T03:48:04;49.42;;;26.83;;
18196;SDS011;9224;52.422;13.024;2022-12-18T03:50:36;46.83;;;26.02;;
18196;SDS011;9224;52.422;13.024;2022-12-18T03:53:06;47.03;;;26.25;;
18196;SDS011;9224;52.422;13.024;2022-12-18T03:55:38;48.25;;;26.20;;
18196;SDS011;9224;52.422;13.024;2022-12-18T03:58:06;48.35;;;26.08;;
18196;SDS011;9224;52.422;13.024;2022-12-18T04:00:33;48.35;;;26.20;;
18196;SDS011;9224;52.422;13.024;2022-12-18T04:03:00;48.33;;;25.88;;
18196;SDS011;9224;52.422;13.024;2022-12-18T04:05:29;43.80;;;25.08;;
18196;SDS011;9224;52.422;13.024;2022-12-18T04:07:56;45.00;;;24.25;;
18196;SDS011;9224;52.422;13.024;2022-12-18T04:10:23;45.60;;;24.05;;
18196;SDS011;9224;52.422;13.024;2022-12-18T04:12:50;46.13;;;25.10;;
18196;SDS011;9224;52.422;13.024;2022-12-18T04:15:19;45.63;;;23.77;;
18196;SDS011;9224;52.422;13.024;2022-12-18T04:17:48;42.78;;;23.85;;
18196;SDS011;9224;52.422;13.024;2022-12-18T04:20:15;42.70;;;23.83;;
18196;SDS011;9224;52.422;13.024;2022-12-18T04:22:43;43.70;;;24.90;;
18196;SDS011;9224;52.422;13.024;2022-12-18T04:25:10;44.83;;;23.83;;
18196;SDS011;9224;52.422;13.024;2022-12-18T04:27:37;42.08;;;23.35;;
18196;SDS011;9224;52.422;13.024;2022-12-18T04:30:04;45.50;;;23.23;;
18196;SDS011;9224;52.422;13.024;2022-12-18T04:32:32;47.87;;;24.83;;
18196;SDS011;9224;52.422;13.024;2022-12-18T04:34:59;41.78;;;23.38;;
18196;SDS011;9224;52.422;13.024;2022-12-18T04:37:26;42.10;;;22.95;;
18196;SDS011;9224;52.422;13.024;2022-12-18T04:39:54;44.05;;;24.63;;
18196;SDS011;9224;52.422;13.024;2022-12-18T04:42:20;44.42;;;24.42;;
18196;SDS011;9224;52.422;13.024;2022-12-18T04:44:47;40.55;;;23.10;;
18196;SDS011;9224;52.422;13.024;2022-12-18T04:47:14;42.13;;;23.77;;
18196;SDS011;9224;52.422;13.024;2022-12-18T04:49:40;47.17;;;25.08;;
18196;SDS011;9224;52.422;13.024;2022-12-18T04:52:07;43.13;;;24.50;;
18196;SDS011;9224;52.422;13.024;2022-12-18T04:54:33;44.37;;;24.47;;
18196;SDS011;9224;52.422;13.024;2022-12-18T04:57:01;47.15;;;25.27;;
18196;SDS011;9224;52.422;13.024;2022-12-18T04:59:28;43.90;;;23.90;;
18196;SDS011;9224;52.422;13.024;2022-12-18T05:01:55;43.45;;;24.58;;
18196;SDS011;9224;52.422;13.024;2022-12-18T05:04:21;44.13;;;23.85;;
18196;SDS011;9224;52.422;13.024;2022-12-18T05:06:48;43.75;;;25.10;;
18196;SDS011;9224;52.422;13.024;2022-12-18T05:09:15;46.00;;;24.88;;
18196;SDS011;9224;52.422;13.024;2022-12-18T05:11:41;41.78;;;24.08;;
18196;SDS011;9224;52.422;13.024;2022-12-18T05:14:09;41.20;;;23.23;;
18196;SDS011;9224;52.422;13.024;2022-12-18T05:16:36;43.50;;;23.10;;
18196;SDS011;9224;52.422;13.024;2022-12-18T05:21:50;43.35;;;23.63;;
18196;SDS011;9224;52.422;13.024;2022-12-18T05:24:16;46.87;;;24.83;;
18196;SDS011;9224;52.422;13.024;2022-12-18T05:26:43;42.65;;;23.25;;
18196;SDS011;9224;52.422;13.024;2022-12-18T05:29:11;44.53;;;22.88;;
18196;SDS011;9224;52.422;13.024;2022-12-18T05:31:38;46.28;;;24.10;;
18196;SDS011;9224;52.422;13.024;2022-12-18T05:34:04;43.85;;;24.13;;
18196;SDS011;9224;52.422;13.024;2022-12-18T05:36:31;42.10;;;22.52;;
18196;SDS011;9224;52.422;13.024;2022-12-18T05:38:58;42.08;;;23.50;;
18196;SDS011;9224;52.422;13.024;2022-12-18T05:41:25;40.90;;;22.23;;
18196;SDS011;9224;52.422;13.024;2022-12-18T05:43:51;44.10;;;24.00;;
18196;SDS011;9224;52.422;13.024;2022-12-18T05:46:19;39.97;;;23.05;;
18196;SDS011;9224;52.422;13.024;2022-12-18T05:48:46;40.08;;;22.40;;
18196;SDS011;9224;52.422;13.024;2022-12-18T05:51:14;38.97;;;22.40;;
18196;SDS011;9224;52.422;13.024;2022-12-18T05:53:42;42.78;;;23.73;;
18196;SDS011;9224;52.422;13.024;2022-12-18T05:56:10;40.33;;;23.00;;
18196;SDS011;9224;52.422;13.024;2022-12-18T05:58:39;41.20;;;23.35;;
18196;SDS011;9224;52.422;13.024;2022-12-18T06:01:07;40.03;;;23.35;;
18196;SDS011;9224;52.422;13.024;2022-12-18T06:03:36;41.88;;;23.58;;
18196;SDS011;9224;52.422;13.024;2022-12-18T06:06:03;42.97;;;23.60;;
18196;SDS011;9224;52.422;13.024;2022-12-18T06:08:30;43.45;;;24.83;;
18196;SDS011;9224;52.422;13.024;2022-12-18T06:10:56;47.45;;;25.42;;
18196;SDS011;9224;52.422;13.024;2022-12-18T06:13:24;41.95;;;24.13;;
18196;SDS011;9224;52.422;13.024;2022-12-18T06:15:50;43.43;;;24.10;;
18196;SDS011;9224;52.422;13.024;2022-12-18T06:18:17;47.78;;;23.40;;
18196;SDS011;9224;52.422;13.024;2022-12-18T06:20:45;42.35;;;24.30;;
18196;SDS011;9224;52.422;13.024;2022-12-18T06:23:11;45.28;;;24.73;;
18196;SDS011;9224;52.422;13.024;2022-12-18T06:25:38;45.47;;;24.80;;
18196;SDS011;9224;52.422;13.024;2022-12-18T06:28:05;44.45;;;24.85;;
18196;SDS011;9224;52.422;13.024;2022-12-18T06:30:32;46.65;;;25.35;;
18196;SDS011;9224;52.422;13.024;2022-12-18T06:32:59;42.65;;;24.42;;
18196;SDS011;9224;52.422;13.024;2022-12-18T06:35:25;46.47;;;25.00;;
18196;SDS011;9224;52.422;13.024;2022-12-18T06:37:53;47.63;;;25.03;;
18196;SDS011;9224;52.422;13.024;2022-12-18T06:40:20;48.67;;;25.48;;
18196;SDS011;9224;52.422;13.024;2022-12-18T06:42:47;46.35;;;25.73;;
18196;SDS011;9224;52.422;13.024;2022-12-18T06:45:13;43.78;;;24.63;;
18196;SDS011;9224;52.422;13.024;2022-12-18T06:47:41;48.10;;;26.35;;
18196;SDS011;9224;52.422;13.024;2022-12-18T06:50:10;48.30;;;25.60;;
18196;SDS011;9224;52.422;13.024;2022-12-18T06:52:37;47.05;;;25.70;;
18196;SDS011;9224;52.422;13.024;2022-12-18T06:55:07;45.37;;;25.87;;
18196;SDS011;9224;52.422;13.024;2022-12-18T06:57:34;42.55;;;24.45;;
18196;SDS011;9224;52.422;13.024;2022-12-18T07:00:00;45.70;;;24.98;;
18196;SDS011;9224;52.422;13.024;2022-12-18T07:02:28;44.00;;;24.63;;
18196;SDS011;9224;52.422;13.024;2022-12-18T07:04:55;43.85;;;24.83;;
18196;SDS011;9224;52.422;13.024;2022-12-18T07:07:21;44.88;;;25.10;;
18196;SDS011;9224;52.422;13.024;2022-12-18T07:09:49;46.53;;;26.55;;
18196;SDS011;9224;52.422;13.024;2022-12-18T07:12:17;46.47;;;26.27;;
18196;SDS011;9224;52.422;13.024;2022-12-18T07:14:43;44.03;;;24.38;;
18196;SDS011;9224;52.422;13.024;2022-12-18T07:17:10;46.35;;;25.83;;
18196;SDS011;9224;52.422;13.024;2022-12-18T07:19:37;46.28;;;25.65;;
18196;SDS011;9224;52.422;13.024;2022-12-18T07:22:03;42.53;;;24.42;;
18196;SDS011;9224;52.422;13.024;2022-12-18T07:24:30;43.80;;;24.98;;
18196;SDS011;9224;52.422;13.024;2022-12-18T07:26:56;47.80;;;25.23;;
18196;SDS011;9224;52.422;13.024;2022-12-18T07:29:24;45.17;;;25.35;;
18196;SDS011;9224;52.422;13.024;2022-12-18T07:31:51;45.80;;;26.10;;
18196;SDS011;9224;52.422;13.024;2022-12-18T07:34:18;45.63;;;25.85;;
18196;SDS011;9224;52.422;13.024;2022-12-18T07:36:44;45.58;;;26.17;;
18196;SDS011;9224;52.422;13.024;2022-12-18T07:39:11;44.28;;;25.88;;
18196;SDS011;9224;52.422;13.024;2022-12-18T07:41:38;46.80;;;25.90;;
18196;SDS011;9224;52.422;13.024;2022-12-18T07:44:08;49.47;;;27.70;;
18196;SDS011;9224;52.422;13.024;2022-12-18T07:46:37;46.20;;;26.92;;
18196;SDS011;9224;52.422;13.024;2022-12-18T07:49:03;50.90;;;28.50;;
18196;SDS011;9224;52.422;13.024;2022-12-18T07:51:30;43.63;;;26.30;;
18196;SDS011;9224;52.422;13.024;2022-12-18T07:53:56;48.42;;;26.67;;
18196;SDS011;9224;52.422;13.024;2022-12-18T07:56:23;44.58;;;26.75;;
18196;SDS011;9224;52.422;13.024;2022-12-18T07:58:50;49.05;;;26.98;;
18196;SDS011;9224;52.422;13.024;2022-12-18T08:01:16;49.23;;;27.67;;
18196;SDS011;9224;52.422;13.024;2022-12-18T08:03:44;53.50;;;28.90;;
18196;SDS011;9224;52.422;13.024;2022-12-18T08:06:11;51.92;;;28.58;;
18196;SDS011;9224;52.422;13.024;2022-12-18T08:08:37;50.78;;;28.83;;
18196;SDS011;9224;52.422;13.024;2022-12-18T08:11:06;51.20;;;27.23;;
18196;SDS011;9224;52.422;13.024;2022-12-18T08:13:32;50.85;;;28.58;;
18196;SDS011;9224;52.422;13.024;2022-12-18T08:16:00;51.80;;;28.05;;
18196;SDS011;9224;52.422;13.024;2022-12-18T08:18:27;47.53;;;27.48;;
18196;SDS011;9224;52.422;13.024;2022-12-18T08:20:55;51.78;;;28.13;;
18196;SDS011;9224;52.422;13.024;2022-12-18T08:23:22;46.65;;;27.65;;
18196;SDS011;9224;52.422;13.024;2022-12-18T08:25:49;47.28;;;27.45;;
18196;SDS011;9224;52.422;13.024;2022-12-18T08:28:16;47.60;;;27.00;;
18196;SDS011;9224;52.422;13.024;2022-12-18T08:30:43;48.35;;;27.50;;
18196;SDS011;9224;52.422;13.024;2022-12-18T08:33:09;47.63;;;27.23;;
18196;SDS011;9224;52.422;13.024;2022-12-18T08:35:36;44.73;;;27.00;;
18196;SDS011;9224;52.422;13.024;2022-12-18T08:38:04;46.53;;;26.35;;
18196;SDS011;9224;52.422;13.024;2022-12-18T08:40:30;43.03;;;26.17;;
18196;SDS011;9224;52.422;13.024;2022-12-18T08:42:57;45.60;;;26.13;;
18196;SDS011;9224;52.422;13.024;2022-12-18T08:45:41;44.80;;;26.05;;
18196;SDS011;9224;52.422;13.024;2022-12-18T08:48:08;45.70;;;26.23;;
18196;SDS011;9224;52.422;13.024;2022-12-18T08:50:34;40.33;;;24.80;;
18196;SDS011;9224;52.422;13.024;2022-12-18T08:53:01;44.97;;;27.50;;
18196;SDS011;9224;52.422;13.024;2022-12-18T08:55:29;42.70;;;25.15;;
18196;SDS011;9224;52.422;13.024;2022-12-18T08:57:56;40.88;;;24.90;;
18196;SDS011;9224;52.422;13.024;2022-12-18T09:00:22;39.15;;;24.38;;
18196;SDS011;9224;52.422;13.024;2022-12-18T09:02:49;40.08;;;24.27;;
18196;SDS011;9224;52.422;13.024;2022-12-18T09:05:15;41.20;;;24.98;;
18196;SDS011;9224;52.422;13.024;2022-12-18T09:07:42;41.28;;;24.85;;
18196;SDS011;9224;52.422;13.024;2022-12-18T09:10:09;43.90;;;26.20;;
18196;SDS011;9224;52.422;13.024;2022-12-18T09:12:37;40.13;;;25.17;;
18196;SDS011;9224;52.422;13.024;2022-12-18T09:15:04;41.20;;;26.48;;
18196;SDS011;9224;52.422;13.024;2022-12-18T09:17:31;44.50;;;27.95;;
18196;SDS011;9224;52.422;13.024;2022-12-18T09:19:58;37.38;;;24.30;;
18196;SDS011;9224;52.422;13.024;2022-12-18T09:22:24;38.55;;;23.95;;
18196;SDS011;9224;52.422;13.024;2022-12-18T09:24:51;37.95;;;24.60;;
18196;SDS011;9224;52.422;13.024;2022-12-18T09:27:17;42.70;;;26.17;;
18196;SDS011;9224;52.422;13.024;2022-12-18T09:29:45;40.75;;;25.60;;
18196;SDS011;9224;52.422;13.024;2022-12-18T09:32:12;36.97;;;24.67;;
18196;SDS011;9224;52.422;13.024;2022-12-18T09:34:39;39.15;;;25.10;;
18196;SDS011;9224;52.422;13.024;2022-12-18T09:37:06;38.33;;;24.77;;
18196;SDS011;9224;52.422;13.024;2022-12-18T09:39:32;37.22;;;24.17;;
18196;SDS011;9224;52.422;13.024;2022-12-18T09:41:59;38.05;;;23.48;;
18196;SDS011;9224;52.422;13.024;2022-12-18T09:44:26;33.45;;;22.15;;
18196;SDS011;9224;52.422;13.024;2022-12-18T09:47:00;34.17;;;22.77;;
18196;SDS011;9224;52.422;13.024;2022-12-18T09:49:31;36.20;;;23.50;;
18196;SDS011;9224;52.422;13.024;2022-12-18T09:52:02;38.60;;;24.05;;
18196;SDS011;9224;52.422;13.024;2022-12-18T09:54:32;39.42;;;25.00;;
18196;SDS011;9224;52.422;13.024;2022-12-18T09:57:00;42.63;;;25.90;;
18196;SDS011;9224;52.422;13.024;2022-12-18T09:59:29;42.05;;;26.02;;
18196;SDS011;9224;52.422;13.024;2022-12-18T10:01:59;39.85;;;25.95;;
18196;SDS011;9224;52.422;13.024;2022-12-18T10:04:26;43.22;;;26.05;;
18196;SDS011;9224;52.422;13.024;2022-12-18T10:06:58;41.78;;;25.63;;
18196;SDS011;9224;52.422;13.024;2022-12-18T10:09:30;42.05;;;25.05;;
18196;SDS011;9224;52.422;13.024;2022-12-18T10:12:02;39.00;;;25.05;;
18196;SDS011;9224;52.422;13.024;2022-12-18T10:14:35;40.20;;;23.38;;
18196;SDS011;9224;52.422;13.024;2022-12-18T10:17:07;42.03;;;24.55;;
18196;SDS011;9224;52.422;13.024;2022-12-18T10:19:40;42.10;;;25.85;;
18196;SDS011;9224;52.422;13.024;2022-12-18T10:22:17;44.00;;;25.95;;
18196;SDS011;9224;52.422;13.024;2022-12-18T10:24:54;41.25;;;26.25;;
18196;SDS011;9224;52.422;13.024;2022-12-18T10:27:23;43.13;;;26.65;;
18196;SDS011;9224;52.422;13.024;2022-12-18T10:29:52;46.40;;;26.65;;
18196;SDS011;9224;52.422;13.024;2022-12-18T10:32:21;44.17;;;26.88;;
18196;SDS011;9224;52.422;13.024;2022-12-18T10:34:49;42.38;;;25.35;;
18196;SDS011;9224;52.422;13.024;2022-12-18T10:37:19;43.78;;;27.02;;
18196;SDS011;9224;52.422;13.024;2022-12-18T10:39:47;44.70;;;27.23;;
18196;SDS011;9224;52.422;13.024;2022-12-18T10:42:32;47.72;;;27.95;;
18196;SDS011;9224;52.422;13.024;2022-12-18T10:45:00;46.58;;;29.05;;
18196;SDS011;9224;52.422;13.024;2022-12-18T10:47:30;48.22;;;28.33;;
18196;SDS011;9224;52.422;13.024;2022-12-18T10:49:57;49.17;;;28.67;;
18196;SDS011;9224;52.422;13.024;2022-12-18T10:52:24;46.88;;;28.02;;
18196;SDS011;9224;52.422;13.024;2022-12-18T10:54:52;48.10;;;29.27;;
18196;SDS011;9224;52.422;13.024;2022-12-18T10:57:33;45.83;;;27.73;;
18196;SDS011;9224;52.422;13.024;2022-12-18T11:00:19;47.42;;;28.88;;
18196;SDS011;9224;52.422;13.024;2022-12-18T11:02:52;45.75;;;27.08;;
18196;SDS011;9224;52.422;13.024;2022-12-18T11:05:28;45.55;;;27.45;;
18196;SDS011;9224;52.422;13.024;2022-12-18T11:07:56;42.60;;;25.05;;
18196;SDS011;9224;52.422;13.024;2022-12-18T11:10:26;41.83;;;25.38;;
18196;SDS011;9224;52.422;13.024;2022-12-18T11:12:55;40.03;;;25.23;;
18196;SDS011;9224;52.422;13.024;2022-12-18T11:15:23;34.13;;;23.48;;
18196;SDS011;9224;52.422;13.024;2022-12-18T11:17:55;37.20;;;23.50;;
18196;SDS011;9224;52.422;13.024;2022-12-18T11:20:27;38.28;;;23.58;;
18196;SDS011;9224;52.422;13.024;2022-12-18T11:22:57;36.45;;;22.30;;
18196;SDS011;9224;52.422;13.024;2022-12-18T11:25:25;37.63;;;23.60;;
18196;SDS011;9224;52.422;13.024;2022-12-18T11:27:53;36.42;;;22.75;;
18196;SDS011;9224;52.422;13.024;2022-12-18T11:30:23;34.70;;;21.60;;
18196;SDS011;9224;52.422;13.024;2022-12-18T11:32:52;32.10;;;20.97;;
18196;SDS011;9224;52.422;13.024;2022-12-18T11:35:23;34.38;;;21.58;;
18196;SDS011;9224;52.422;13.024;2022-12-18T11:38:01;36.70;;;23.38;;
18196;SDS011;9224;52.422;13.024;2022-12-18T11:40:32;38.10;;;24.10;;
18196;SDS011;9224;52.422;13.024;2022-12-18T11:43:02;32.95;;;21.48;;
18196;SDS011;9224;52.422;13.024;2022-12-18T11:45:34;34.53;;;21.10;;
18196;SDS011;9224;52.422;13.024;2022-12-18T11:48:02;34.85;;;21.20;;
18196;SDS011;9224;52.422;13.024;2022-12-18T11:50:33;34.50;;;21.25;;
18196;SDS011;9224;52.422;13.024;2022-12-18T11:53:09;34.57;;;21.83;;
18196;SDS011;9224;52.422;13.024;2022-12-18T11:55:39;33.15;;;21.90;;
18196;SDS011;9224;52.422;13.024;2022-12-18T11:58:11;32.03;;;21.17;;
18196;SDS011;9224;52.422;13.024;2022-12-18T12:00:42;34.60;;;22.40;;
18196;SDS011;9224;52.422;13.024;2022-12-18T12:03:18;34.97;;;22.35;;
18196;SDS011;9224;52.422;13.024;2022-12-18T12:05:57;32.22;;;21.83;;
18196;SDS011;9224;52.422;13.024;2022-12-18T12:08:31;33.28;;;21.13;;
18196;SDS011;9224;52.422;13.024;2022-12-18T12:11:03;31.38;;;20.63;;
18196;SDS011;9224;52.422;13.024;2022-12-18T12:13:38;33.45;;;22.02;;
18196;SDS011;9224;52.422;13.024;2022-12-18T12:16:11;30.00;;;20.02;;
18196;SDS011;9224;52.422;13.024;2022-12-18T12:18:47;27.77;;;19.75;;
18196;SDS011;9224;52.422;13.024;2022-12-18T12:21:23;30.95;;;20.05;;
18196;SDS011;9224;52.422;13.024;2022-12-18T12:23:53;28.85;;;18.85;;
18196;SDS011;9224;52.422;13.024;2022-12-18T12:26:26;30.48;;;20.58;;
18196;SDS011;9224;52.422;13.024;2022-12-18T12:29:01;29.70;;;19.97;;
18196;SDS011;9224;52.422;13.024;2022-12-18T12:31:34;30.60;;;20.63;;
18196;SDS011;9224;52.422;13.024;2022-12-18T12:34:12;30.23;;;20.77;;
18196;SDS011;9224;52.422;13.024;2022-12-18T12:36:46;29.30;;;19.13;;
18196;SDS011;9224;52.422;13.024;2022-12-18T12:39:20;32.38;;;20.02;;
18196;SDS011;9224;52.422;13.024;2022-12-18T12:41:49;28.75;;;19.67;;
18196;SDS011;9224;52.422;13.024;2022-12-18T12:44:35;28.98;;;20.55;;
18196;SDS011;9224;52.422;13.024;2022-12-18T12:47:07;30.27;;;20.55;;
18196;SDS011;9224;52.422;13.024;2022-12-18T12:49:38;27.80;;;19.63;;
18196;SDS011;9224;52.422;13.024;2022-12-18T12:52:07;27.73;;;19.63;;
18196;SDS011;9224;52.422;13.024;2022-12-18T12:54:38;28.88;;;20.35;;
18196;SDS011;9224;52.422;13.024;2022-12-18T12:57:05;25.95;;;17.98;;
18196;SDS011;9224;52.422;13.024;2022-12-18T12:59:37;25.45;;;18.48;;
18196;SDS011;9224;52.422;13.024;2022-12-18T13:02:10;26.77;;;19.08;;
18196;SDS011;9224;52.422;13.024;2022-12-18T13:04:44;27.55;;;19.27;;
18196;SDS011;9224;52.422;13.024;2022-12-18T13:07:16;28.55;;;19.33;;
18196;SDS011;9224;52.422;13.024;2022-12-18T13:12:54;27.83;;;19.20;;
18196;SDS011;9224;52.422;13.024;2022-12-18T13:15:24;26.50;;;18.92;;
18196;SDS011;9224;52.422;13.024;2022-12-18T13:20:48;28.85;;;20.25;;
18196;SDS011;9224;52.422;13.024;2022-12-18T13:23:27;31.02;;;20.67;;
18196;SDS011;9224;52.422;13.024;2022-12-18T13:25:56;28.98;;;20.42;;
18196;SDS011;9224;52.422;13.024;2022-12-18T13:28:23;31.33;;;21.33;;
18196;SDS011;9224;52.422;13.024;2022-12-18T13:30:53;29.70;;;20.85;;
18196;SDS011;9224;52.422;13.024;2022-12-18T13:33:36;30.10;;;20.67;;
18196;SDS011;9224;52.422;13.024;2022-12-18T13:36:15;27.67;;;19.45;;
18196;SDS011;9224;52.422;13.024;2022-12-18T13:38:44;29.17;;;20.23;;
18196;SDS011;9224;52.422;13.024;2022-12-18T13:41:22;30.55;;;20.20;;
18196;SDS011;9224;52.422;13.024;2022-12-18T13:43:50;27.25;;;18.40;;
18196;SDS011;9224;52.422;13.024;2022-12-18T13:46:19;29.03;;;19.50;;
18196;SDS011;9224;52.422;13.024;2022-12-18T13:48:51;27.20;;;19.15;;
18196;SDS011;9224;52.422;13.024;2022-12-18T13:51:20;29.77;;;19.65;;
18196;SDS011;9224;52.422;13.024;2022-12-18T13:53:49;28.80;;;19.58;;
18196;SDS011;9224;52.422;13.024;2022-12-18T13:56:17;30.08;;;19.90;;
18196;SDS011;9224;52.422;13.024;2022-12-18T13:58:44;28.60;;;20.10;;
18196;SDS011;9224;52.422;13.024;2022-12-18T14:01:21;29.37;;;19.77;;
18196;SDS011;9224;52.422;13.024;2022-12-18T14:03:49;30.60;;;21.25;;
18196;SDS011;9224;52.422;13.024;2022-12-18T14:06:16;30.63;;;21.92;;
18196;SDS011;9224;52.422;13.024;2022-12-18T14:08:43;30.23;;;21.17;;
18196;SDS011;9224;52.422;13.024;2022-12-18T14:11:22;33.47;;;23.55;;
18196;SDS011;9224;52.422;13.024;2022-12-18T14:13:49;36.47;;;24.52;;
18196;SDS011;9224;52.422;13.024;2022-12-18T14:16:15;33.30;;;23.43;;
18196;SDS011;9224;52.422;13.024;2022-12-18T14:18:44;36.85;;;25.05;;
18196;SDS011;9224;52.422;13.024;2022-12-18T14:21:19;34.50;;;24.98;;
18196;SDS011;9224;52.422;13.024;2022-12-18T14:23:48;36.65;;;24.75;;
18196;SDS011;9224;52.422;13.024;2022-12-18T14:26:23;34.80;;;23.30;;
18196;SDS011;9224;52.422;13.024;2022-12-18T14:28:53;35.13;;;23.85;;
18196;SDS011;9224;52.422;13.024;2022-12-18T14:31:21;32.15;;;22.63;;
18196;SDS011;9224;52.422;13.024;2022-12-18T14:33:48;34.28;;;23.05;;
18196;SDS011;9224;52.422;13.024;2022-12-18T14:36:15;34.85;;;23.67;;
18196;SDS011;9224;52.422;13.024;2022-12-18T14:38:47;32.70;;;23.15;;
18196;SDS011;9224;52.422;13.024;2022-12-18T14:41:15;32.20;;;22.40;;
18196;SDS011;9224;52.422;13.024;2022-12-18T14:43:44;31.63;;;22.48;;
18196;SDS011;9224;52.422;13.024;2022-12-18T14:46:25;32.33;;;22.77;;